Latest Weather Observations for Ngukurr AWS

IDD60801

Issued at 9:01 pm CST Friday 31 July 2015 (issued every 30 minutes, with the page automatically refreshed every 10 minutes)

About weather observations | Map of weather stations | Latest weather observations for NT | Other Formats
Station Details ID: 014299 Name: NGUKURR AIRPORT Lat: -14.72 Lon: 134.75 Height: 14.46 m
Data from the previous 72 hours. | See also: Recent months at Ngukurr AWS
Date/Time
CST
Temp
°C
App
Temp
°C
Dew
Point
Rel
Hum
%
Delta-T
°C
Wind Press
QNH
hPa
Press
MSL
hPa
Rain
since 9 am
mm
Dir
 
Spd
km/h
Gust
km/h
Spd
kts
Gust
kts
31/09:00pm 20.4 18.9 6.7 41 6.9 SE 4 6 2 3 1015.5 1015.5 0.0
31/08:30pm 21.3 20.1 6.4 38 7.5 E 2 4 1 2 1015.1 1015.1 0.0
31/08:00pm 22.4 20.8 6.2 35 8.2 NE 4 6 2 3 1014.9 1014.9 0.0
31/07:30pm 24.7 23.2 6.9 32 9.3 ENE 4 7 2 4 1014.7 1014.7 0.0
31/07:00pm 26.0 23.1 6.6 29 10.1 E 11 17 6 9 1014.5 1014.5 0.0
31/06:30pm 26.5 23.7 7.0 29 10.3 E 11 15 6 8 1014.2 1014.2 0.0
31/06:00pm 27.6 23.0 6.4 26 11.1 ENE 20 32 11 17 1013.9 1013.9 0.0
31/05:30pm 28.9 24.4 6.9 25 11.7 ENE 20 33 11 18 1013.6 1013.6 0.0
31/05:00pm 29.4 24.8 6.7 24 12.1 E 20 28 11 15 1013.4 1013.4 0.0
31/04:30pm 29.7 25.0 7.6 25 12.0 ENE 22 32 12 17 1013.4 1013.4 0.0
31/04:00pm 30.1 25.2 8.5 26 11.9 ENE 24 39 13 21 1013.6 1013.6 0.0
31/03:30pm 30.3 25.6 9.2 27 11.8 E 24 37 13 20 1013.7 1013.7 0.0
31/03:00pm 30.9 26.0 8.6 25 12.4 ENE 24 39 13 21 1013.9 1013.9 0.0
31/02:30pm 30.9 26.0 8.6 25 12.4 E 24 33 13 18 1014.1 1014.1 0.0
31/02:00pm 30.7 25.0 8.4 25 12.3 ENE 28 41 15 22 1014.5 1014.5 0.0
31/01:30pm 32.1 27.5 9.6 25 12.8 E 24 37 13 20 1014.8 1014.8 0.0
31/01:00pm 31.3 27.0 9.5 26 12.3 E 22 39 12 21 1015.4 1015.4 0.0
31/12:30pm 31.3 27.7 10.6 28 11.9 E 20 33 11 18 1015.9 1015.9 0.0
31/12:00pm 30.3 27.1 11.8 32 10.8 E 20 35 11 19 1016.3 1016.3 0.0
31/11:30am 29.8 26.6 13.1 36 9.9 ESE 22 33 12 18 1016.7 1016.7 0.0
31/11:00am 28.4 26.3 14.6 43 8.3 ESE 19 28 10 15 1017.1 1017.1 0.0
31/10:30am 27.1 28.2 17.0 54 6.3 SE 7 13 4 7 1017.5 1017.5 0.0
31/10:00am 25.9 27.3 17.8 61 5.1 SE 7 13 4 7 1017.7 1017.7 0.0
31/09:30am 25.0 26.8 18.4 66 4.2 ESE 6 13 3 7 1017.9 1017.9 0.0
31/09:00am 22.6 24.6 18.8 79 2.4 SE 6 13 3 7 1017.9 1017.9 0.0
31/08:30am 22.7 24.9 19.3 81 2.2 ESE 6 11 3 6 1017.8 1017.8 0.0
31/08:00am 21.4 24.7 20.7 96 0.5 SSE 4 6 2 3 1017.6 1017.6 0.0
31/07:30am 20.6 24.1 20.3 98 0.2 S 2 4 1 2 1017.2 1017.2 0.0
31/07:00am 20.0 23.2 19.7 98 0.2 SSE 2 6 1 3 1017.1 1017.1 0.0
31/06:30am 19.4 22.3 19.1 98 0.2 S 2 6 1 3 1016.9 1016.9 0.0
31/06:00am 19.5 22.8 19.2 98 0.2 CALM 0 0 0 0 1016.7 1016.7 0.0
31/05:30am 19.6 23.0 19.3 98 0.2 CALM 0 0 0 0 1016.6 1016.6 0.0
31/05:00am 19.6 23.0 19.3 98 0.2 CALM 0 0 0 0 1016.6 1016.6 0.0
31/04:30am 19.0 22.1 18.7 98 0.2 CALM 0 0 0 0 1016.6 1016.6 0.0
31/04:00am 18.1 20.8 17.8 98 0.2 CALM 0 0 0 0 1016.7 1016.7 0.0
31/03:30am 18.7 21.7 18.4 98 0.2 CALM 0 0 0 0 1016.8 1016.8 0.0
31/03:00am 19.4 22.7 19.1 98 0.2 CALM 0 2 0 1 1016.9 1016.9 0.0
31/02:30am 18.4 21.3 18.1 98 0.2 CALM 0 0 0 0 1017.1 1017.1 0.0
31/02:00am 18.2 21.0 17.9 98 0.2 CALM 0 0 0 0 1017.4 1017.4 0.0
31/01:30am 18.5 21.3 17.9 96 0.4 CALM 0 0 0 0 1017.6 1017.6 0.0
31/01:00am 19.1 22.0 18.3 95 0.5 CALM 0 0 0 0 1017.8 1017.8 0.0
31/12:30am 19.2 22.1 18.2 94 0.6 CALM 0 2 0 1 1017.9 1017.9 0.0
31/12:00am 19.8 23.1 19.0 95 0.5 CALM 0 0 0 0 1018.0 1018.0 0.0
 
Date/Time
CST
Temp
°C
App
Temp
°C
Dew
Point
Rel
Hum
%
Delta-T
°C
Wind Press
QNH
hPa
Press
MSL
hPa
Rain
since 9 am
mm
Dir
 
Spd
km/h
Gust
km/h
Spd
kts
Gust
kts
30/11:30pm 20.1 22.9 18.8 92 0.8 SSE 2 4 1 2 1018.2 1018.2 0.0
30/11:00pm 20.1 22.3 17.5 85 1.6 SSE 2 4 1 2 1018.2 1018.2 0.0
30/10:30pm 21.6 23.7 18.0 80 2.2 E 4 6 2 3 1018.3 1018.3 0.0
30/10:00pm 22.3 24.2 18.5 79 2.4 E 6 7 3 4 1018.3 1018.3 0.0
30/09:30pm 22.7 24.5 18.3 76 2.8 E 6 9 3 5 1018.1 1018.1 0.0
30/09:00pm 23.3 24.9 18.2 73 3.2 E 7 11 4 6 1017.9 1017.9 0.0
30/08:30pm 23.8 24.2 18.2 71 3.5 E 13 20 7 11 1017.5 1017.5 0.0
30/08:00pm 24.3 24.6 18.0 68 4.0 E 13 20 7 11 1017.2 1017.2 0.0
30/07:30pm 24.9 24.9 17.1 62 4.8 E 13 20 7 11 1016.7 1016.7 0.0
30/07:00pm 25.8 24.8 15.5 53 6.2 E 15 22 8 12 1016.4 1016.4 0.0
30/06:30pm 26.9 24.6 12.9 42 8.2 E 17 22 9 12 1016.0 1016.0 0.0
30/06:00pm 28.6 25.7 8.3 28 11.1 E 13 20 7 11 1015.6 1015.6 0.0
30/05:30pm 30.1 26.2 7.3 24 12.3 E 17 26 9 14 1015.4 1015.4 0.0
30/05:00pm 30.9 26.9 6.7 22 13.0 E 17 28 9 15 1015.3 1015.3 0.0
30/04:30pm 31.5 26.9 5.8 20 13.7 E 19 26 10 14 1015.2 1015.2 0.0
30/04:00pm 31.8 27.1 5.3 19 14.0 E 19 32 10 17 1015.2 1015.2 0.0
30/03:30pm 32.3 27.9 5.0 18 14.4 E 17 28 9 15 1015.3 1015.3 0.0
30/03:00pm 32.3 28.3 5.0 18 14.4 ESE 15 26 8 14 1015.5 1015.5 0.0
30/02:30pm 32.3 28.3 6.5 20 13.9 ESE 17 32 9 17 1016.1 1016.1 0.0
30/02:00pm 31.7 28.2 7.4 22 13.3 SE 15 26 8 14 1016.6 1016.6 0.0
30/01:30pm 31.4 27.9 7.1 22 13.2 E 15 22 8 12 1017.2 1017.2 0.0
30/01:00pm 31.1 26.9 7.5 23 12.9 E 19 32 10 17 1017.8 1017.8 0.0
30/12:30pm 30.5 26.3 8.3 25 12.2 E 20 35 11 19 1018.4 1018.4 0.0
30/12:00pm 30.7 26.5 8.4 25 12.3 E 20 35 11 19 1019.0 1019.0 0.0
30/11:30am 29.3 24.1 8.9 28 11.3 E 26 39 14 21 1019.5 1019.5 0.0
30/11:00am 28.6 24.3 10.8 33 10.1 ESE 24 37 13 20 1019.7 1019.7 0.0
30/10:30am 27.2 24.9 14.6 46 7.6 ESE 20 37 11 20 1019.8 1019.8 0.0
30/10:00am 25.8 25.3 15.8 54 6.1 ESE 13 20 7 11 1019.9 1019.9 0.0
30/09:30am 24.5 25.4 17.5 65 4.4 SE 9 15 5 8 1019.8 1019.8 0.0
30/09:00am 23.4 25.4 18.7 75 3.0 ESE 6 9 3 5 1019.5 1019.5 0.0
30/08:30am 22.0 24.6 19.2 84 1.8 SE 4 6 2 3 1019.2 1019.2 0.0
30/08:00am 19.7 23.1 19.4 98 0.2 CALM 0 0 0 0 1018.8 1018.8 0.0
30/07:30am 18.2 20.6 17.9 98 0.2 SE 2 4 1 2 1018.6 1018.6 0.0
30/07:00am 16.8 19.0 16.5 98 0.2 CALM 0 0 0 0 1018.3 1018.3 0.0
30/06:30am 15.8 17.6 15.5 98 0.2 CALM 0 0 0 0 1018.0 1018.0 0.0
30/06:00am 15.6 16.6 15.3 98 0.2 SSW 4 7 2 4 1017.7 1017.7 0.0
30/05:30am 15.5 17.2 15.2 98 0.2 CALM 0 0 0 0 1017.5 1017.5 0.0
30/05:00am 16.3 18.3 16.0 98 0.2 CALM 0 0 0 0 1017.6 1017.6 0.0
30/04:30am 16.2 18.2 15.9 98 0.2 CALM 0 0 0 0 1017.6 1017.6 0.0
30/04:00am 16.7 18.9 16.4 98 0.2 CALM 0 0 0 0 1017.6 1017.6 0.0
30/03:30am 16.8 19.0 16.5 98 0.2 CALM 0 0 0 0 1017.7 1017.7 0.0
30/03:00am 17.0 19.2 16.5 97 0.3 CALM 0 0 0 0 1017.8 1017.8 0.0
30/02:30am 17.3 19.2 15.8 91 0.9 CALM 0 0 0 0 1018.0 1018.0 0.0
30/02:00am 18.2 20.8 17.6 96 0.4 CALM 0 0 0 0 1018.3 1018.3 0.0
30/01:30am 18.7 21.6 18.2 97 0.3 CALM 0 0 0 0 1018.5 1018.5 0.0
30/01:00am 19.1 22.1 18.4 96 0.4 CALM 0 0 0 0 1018.6 1018.6 0.0
30/12:30am 19.3 22.1 18.0 92 0.8 CALM 0 0 0 0 1018.8 1018.8 0.0
30/12:00am 19.2 21.7 17.2 88 1.2 CALM 0 0 0 0 1018.9 1018.9 0.0
 
Date/Time
CST
Temp
°C
App
Temp
°C
Dew
Point
Rel
Hum
%
Delta-T
°C
Wind Press
QNH
hPa
Press
MSL
hPa
Rain
since 9 am
mm
Dir
 
Spd
km/h
Gust
km/h
Spd
kts
Gust
kts
29/11:30pm 19.9 22.3 17.1 84 1.7 CALM 0 2 0 1 1019.0 1019.0 0.0
29/11:00pm 21.3 23.3 17.9 81 2.1 ENE 4 6 2 3 1019.0 1019.0 0.0
29/10:30pm 21.7 23.7 17.9 79 2.4 ENE 4 6 2 3 1019.1 1019.1 0.0
29/10:00pm 22.1 23.5 17.9 77 2.6 ENE 7 9 4 5 1019.2 1019.2 0.0
29/09:30pm 22.4 23.7 17.5 74 3.0 E 7 11 4 6 1019.2 1019.2 0.0
29/09:00pm 22.8 24.1 17.5 72 3.3 ENE 7 9 4 5 1019.1 1019.1 0.0
29/08:30pm 23.1 24.2 17.1 69 3.7 E 7 11 4 6 1018.9 1018.9 0.0
29/08:00pm 23.5 24.2 17.0 67 4.0 ENE 9 15 5 8 1018.6 1018.6 0.0
29/07:30pm 24.0 23.2 17.0 65 4.3 ENE 17 26 9 14 1018.2 1018.2 0.0
29/07:00pm 24.4 23.0 16.6 61 4.8 E 19 30 10 16 1017.8 1017.8 0.0
29/06:30pm 24.9 23.8 16.3 59 5.3 ENE 17 30 9 16 1017.5 1017.5 0.0
29/06:00pm 25.9 24.7 16.2 55 5.9 ENE 17 28 9 15 1017.4 1017.4 0.0
29/05:30pm 27.2 24.6 14.9 47 7.4 ENE 22 30 12 16 1016.9 1016.9 0.0
29/05:00pm 28.1 25.2 14.0 42 8.4 E 22 32 12 17 1016.6 1016.6 0.0
29/04:30pm 28.7 25.5 13.0 38 9.3 ENE 22 32 12 17 1016.5 1016.5 0.0
29/04:00pm 29.3 25.3 11.8 34 10.2 ENE 24 35 13 19 1016.6 1016.6 0.0
29/03:30pm 30.0 25.6 10.5 30 11.1 E 24 35 13 19 1016.7 1016.7 0.0
29/03:00pm 30.7 26.6 10.1 28 11.7 ENE 22 32 12 17 1016.8 1016.8 0.0
29/02:30pm 30.5 26.0 9.9 28 11.6 E 24 35 13 19 1017.0 1017.0 0.0
29/02:00pm 30.9 26.2 9.2 26 12.2 E 24 32 13 17 1017.2 1017.2 0.0
29/01:30pm 31.1 26.9 8.2 24 12.6 ESE 20 35 11 19 1017.6 1017.6 0.0
29/01:00pm 31.0 26.4 8.1 24 12.6 ESE 22 33 12 18 1018.1 1018.1 0.0
29/12:30pm 30.4 25.9 7.0 23 12.6 ESE 20 30 11 16 1018.6 1018.6 0.0
29/12:00pm 29.3 25.2 6.0 23 12.3 SE 17 22 9 12 1019.2 1019.2 0.0
29/11:30am 29.1 24.5 6.5 24 12.0 ESE 20 32 11 17 1019.9 1019.9 0.0
29/11:00am 28.4 24.2 5.9 24 11.8 ESE 17 26 9 14 1020.2 1020.2 0.0
29/10:30am 27.8 23.2 5.4 24 11.5 E 19 32 10 17 1020.5 1020.5 0.0
29/10:00am 26.6 21.9 5.0 25 11.0 SE 19 30 10 16 1020.5 1020.5 0.0
29/09:30am 24.8 21.0 4.0 26 10.3 SE 13 26 7 14 1020.4 1020.4 0.0
29/09:00am 23.5 20.6 4.9 30 9.2 ESE 9 15 5 8 1020.3 1020.3 0.0
29/08:30am 22.0 20.4 6.3 36 7.9 SE 4 7 2 4 1019.9 1019.9 0.0
29/08:00am 19.8 18.8 7.5 45 6.3 SSE 2 6 1 3 1019.6 1019.6 0.0
29/07:30am 16.0 16.4 11.4 74 2.5 CALM 0 0 0 0 1019.5 1019.5 0.0
29/07:00am 13.9 13.4 9.5 75 2.3 SE 2 2 1 1 1019.1 1019.1 0.0
29/06:30am 13.9 13.7 10.5 80 1.8 SSE 2 4 1 2 1018.6 1018.6 0.0
29/06:00am 13.9 14.3 11.2 84 1.4 CALM 0 0 0 0 1018.5 1018.5 0.0
29/05:30am 13.9 14.1 10.7 81 1.7 CALM 0 0 0 0 1018.3 1018.3 0.0
29/05:00am 14.1 14.2 10.3 78 2.0 CALM 0 0 0 0 1018.3 1018.3 0.0
29/04:30am 14.4 14.6 10.6 78 2.0 CALM 0 0 0 0 1018.2 1018.2 0.0
29/04:00am 14.7 14.7 11.1 79 1.9 S 2 4 1 2 1018.1 1018.1 0.0
29/03:30am 15.2 15.4 10.6 74 2.4 CALM 0 0 0 0 1018.3 1018.3 0.0
29/03:00am 15.9 16.0 11.5 75 2.4 SSW 2 4 1 2 1018.6 1018.6 0.0
29/02:30am 16.6 16.1 12.2 75 2.4 SSW 6 6 3 3 1018.9 1018.9 0.0
29/02:00am 16.4 16.3 12.0 75 2.4 S 4 6 2 3 1019.2 1019.2 0.0
29/01:30am 16.7 16.0 12.0 74 2.6 SSW 7 9 4 5 1019.2 1019.2 0.0
29/01:00am 16.8 17.0 10.6 67 3.3 CALM 0 0 0 0 1019.1 1019.1 0.0
29/12:30am 17.4 17.6 10.5 64 3.7 CALM 0 0 0 0 1019.2 1019.2 0.0
29/12:00am 18.4 18.8 11.2 63 3.9 CALM 0 0 0 0 1019.4 1019.4 0.0
 
Date/Time
CST
Temp
°C
App
Temp
°C
Dew
Point
Rel
Hum
%
Delta-T
°C
Wind Press
QNH
hPa
Press
MSL
hPa
Rain
since 9 am
mm
Dir
 
Spd
km/h
Gust
km/h
Spd
kts
Gust
kts
28/11:30pm 18.5 18.9 11.1 62 4.0 CALM 0 0 0 0 1019.6 1019.6 0.0
28/11:00pm 19.1 18.5 10.4 57 4.7 ESE 4 4 2 2 1019.8 1019.8 0.0
28/10:30pm 20.2 19.7 10.6 54 5.2 SE 4 4 2 2 1020.0 1020.0 0.0
28/10:00pm 21.3 21.1 10.5 50 5.9 SE 2 6 1 3 1020.0 1020.0 0.0
28/09:30pm 21.6 21.0 10.4 49 6.1 ESE 4 6 2 3 1019.9 1019.9 0.0

Other Formats:

Comma delimited format used in spreadsheet applications
http://www.bom.gov.au/fwo/IDD60801/IDD60801.94106.axf

JavaScript Object Notation format (JSON) in row-major order
http://www.bom.gov.au/fwo/IDD60801/IDD60801.94106.json